< < Back
Terminal Aerodrome Forecast


Current Version              Previous Versions:   1  2  3  4  5  6  7  8  9  

Terminal Aerodrome Forecast

320
FTUS42 KGSP 282300
TAFHKY
TAF
KHKY 282333Z 2900/2924 31008KT P6SM FEW250
     FM290500 33004KT P6SM SCT250
     FM292000 33003KT P6SM FEW060=

Latest METAR

014
SAUS70 KWBC 291900 RRL
MTRHKY
METAR KHKY 291853Z 27004KT 10SM FEW055 26/11 A2997 RMK AO2 SLP126
T02610111


USA.gov is the U.S. government's official web portal to all federal, state and local government web resources and services.